createdAt,value
2019-05-09T00:00:14.987Z,14.30
2019-05-09T00:02:44.485Z,14.40
2019-05-09T00:05:14.143Z,14.40
2019-05-09T00:07:43.994Z,14.40
2019-05-09T00:10:14.305Z,14.40
2019-05-09T00:12:43.870Z,14.40
2019-05-09T00:15:13.734Z,14.40
2019-05-09T00:17:43.925Z,14.40
2019-05-09T00:20:33.199Z,14.30
2019-05-09T00:23:03.319Z,14.30
2019-05-09T00:25:33.997Z,14.30
2019-05-09T00:28:04.357Z,14.30
2019-05-09T00:30:51.282Z,14.30
2019-05-09T00:33:24.999Z,14.30
2019-05-09T00:35:54.438Z,14.20
2019-05-09T00:38:24.464Z,14.20
2019-05-09T00:40:58.606Z,14.20
2019-05-09T00:43:25.030Z,14.20
2019-05-09T00:46:14.112Z,14.20
2019-05-09T00:49:04.894Z,14.10
2019-05-09T00:51:33.966Z,14.10
2019-05-09T00:54:04.181Z,14.10
2019-05-09T00:56:33.732Z,14.20
2019-05-09T00:59:04.252Z,14.20
2019-05-09T01:01:34.311Z,14.30
2019-05-09T01:04:04.467Z,14.30
2019-05-09T01:06:34.173Z,14.20
2019-05-09T01:09:05.576Z,14.20
2019-05-09T01:11:34.948Z,14.20
2019-05-09T01:14:04.592Z,14.30
2019-05-09T01:16:33.973Z,14.20
2019-05-09T01:19:03.803Z,14.20
2019-05-09T01:21:33.487Z,14.20
2019-05-09T01:24:03.517Z,14.10
2019-05-09T01:26:33.461Z,14.10
2019-05-09T01:29:04.390Z,14.10
2019-05-09T01:31:34.077Z,14.10
2019-05-09T01:34:17.154Z,14.10
2019-05-09T01:37:08.320Z,14.10
2019-05-09T01:39:37.902Z,14.10
2019-05-09T01:42:07.279Z,14.10
2019-05-09T01:44:36.759Z,14.20
2019-05-09T01:47:06.237Z,14.20
2019-05-09T01:49:35.662Z,14.20
2019-05-09T01:52:05.254Z,14.20
2019-05-09T01:54:36.587Z,14.20
2019-05-09T01:57:05.967Z,14.20
2019-05-09T01:59:35.412Z,14.20
2019-05-09T02:02:09.023Z,14.20
2019-05-09T02:04:36.196Z,14.20
2019-05-09T02:07:05.557Z,14.20
2019-05-09T02:09:34.978Z,14.20
2019-05-09T02:12:04.410Z,14.30
2019-05-09T02:14:49.488Z,14.30
2019-05-09T02:17:57.359Z,14.30
2019-05-09T02:20:13.658Z,14.30
2019-05-09T02:22:43.580Z,14.30
2019-05-09T02:25:13.774Z,14.30
2019-05-09T02:27:43.626Z,14.40
2019-05-09T02:30:15.433Z,14.40
2019-05-09T02:32:45.422Z,14.50
2019-05-09T02:35:15.059Z,14.50
2019-05-09T02:37:44.478Z,14.50
2019-05-09T02:40:18.477Z,14.50
2019-05-09T02:42:49.026Z,14.50
2019-05-09T02:45:19.180Z,14.30
2019-05-09T02:47:49.183Z,14.50
2019-05-09T02:50:19.508Z,14.40
2019-05-09T02:52:49.127Z,14.40
2019-05-09T02:55:18.766Z,14.40
2019-05-09T02:57:49.836Z,14.30
2019-05-09T03:00:39.842Z,14.30
2019-05-09T03:03:29.509Z,14.30
2019-05-09T03:05:59.891Z,14.30
2019-05-09T03:08:29.776Z,14.30
2019-05-09T03:11:00.489Z,14.30
2019-05-09T03:13:30.250Z,14.30
2019-05-09T03:16:08.594Z,14.30
2019-05-09T03:18:38.856Z,14.30
2019-05-09T03:21:35.015Z,14.30
2019-05-09T03:24:04.437Z,14.30
2019-05-09T03:26:38.602Z,14.30
2019-05-09T03:29:33.054Z,14.20
2019-05-09T03:32:03.691Z,14.20
2019-05-09T03:34:33.149Z,14.20
2019-05-09T03:37:02.537Z,14.20
2019-05-09T03:39:33.085Z,14.20
2019-05-09T03:42:02.517Z,14.20
2019-05-09T03:44:31.919Z,14.20
2019-05-09T03:47:27.612Z,14.20
2019-05-09T03:50:14.756Z,14.20
2019-05-09T03:52:44.129Z,14.20
2019-05-09T03:55:17.973Z,14.20
2019-05-09T03:57:54.173Z,14.20
2019-05-09T04:00:23.610Z,14.20
2019-05-09T04:02:53.172Z,14.20
2019-05-09T04:05:22.663Z,14.20
2019-05-09T04:07:52.013Z,14.20
2019-05-09T04:10:21.478Z,14.20
2019-05-09T04:12:55.848Z,14.20
2019-05-09T04:15:23.209Z,14.20
2019-05-09T04:17:52.578Z,14.20
2019-05-09T04:20:21.975Z,14.20
2019-05-09T04:22:51.340Z,14.20
2019-05-09T04:25:27.365Z,14.20
2019-05-09T04:27:58.296Z,14.20
2019-05-09T04:30:28.104Z,14.30
2019-05-09T04:32:58.187Z,14.30
2019-05-09T04:35:28.067Z,14.30
2019-05-09T04:37:58.411Z,14.30
2019-05-09T04:40:31.693Z,14.30
2019-05-09T04:43:10.797Z,14.30
2019-05-09T04:45:41.871Z,14.30
2019-05-09T04:48:29.815Z,14.30
2019-05-09T04:51:00.202Z,14.40
2019-05-09T04:53:29.995Z,14.30
2019-05-09T04:56:03.914Z,14.30
2019-05-09T04:58:33.379Z,14.40
2019-05-09T05:01:19.593Z,14.30
2019-05-09T05:03:48.369Z,14.40
2019-05-09T05:06:20.314Z,14.40
2019-05-09T05:08:48.853Z,14.40
2019-05-09T05:11:18.284Z,14.40
2019-05-09T05:13:48.136Z,14.30
2019-05-09T05:16:18.467Z,14.30
2019-05-09T05:18:47.922Z,14.30
2019-05-09T05:21:19.939Z,14.30
2019-05-09T05:24:18.474Z,14.30
2019-05-09T05:26:48.475Z,14.30
2019-05-09T05:29:18.271Z,14.30
2019-05-09T05:31:47.817Z,14.30
2019-05-09T05:34:29.105Z,14.30
2019-05-09T05:36:58.528Z,14.30
2019-05-09T05:39:28.473Z,14.30
2019-05-09T05:41:58.312Z,14.30
2019-05-09T05:44:28.452Z,14.40
2019-05-09T05:47:26.205Z,14.40
2019-05-09T05:49:53.930Z,14.40
2019-05-09T05:52:23.285Z,14.40
2019-05-09T05:54:52.675Z,14.40
2019-05-09T05:57:22.072Z,14.40
2019-05-09T05:59:51.459Z,14.50
2019-05-09T06:02:21.018Z,14.50
2019-05-09T06:04:50.473Z,14.40
2019-05-09T06:07:19.917Z,14.40
2019-05-09T06:09:49.300Z,14.30
2019-05-09T06:12:18.732Z,14.40
2019-05-09T06:14:48.194Z,14.30
2019-05-09T06:17:18.183Z,14.30
2019-05-09T06:19:48.161Z,14.30
2019-05-09T06:22:18.285Z,14.30
2019-05-09T06:24:48.224Z,14.30
2019-05-09T06:27:18.293Z,14.30
2019-05-09T06:29:47.902Z,14.30
2019-05-09T06:32:18.811Z,14.30
2019-05-09T06:34:48.895Z,14.20
2019-05-09T06:37:18.520Z,14.20
2019-05-09T06:39:48.621Z,14.30
2019-05-09T06:42:18.379Z,14.30
2019-05-09T06:45:17.970Z,14.30
2019-05-09T06:47:48.697Z,14.30
2019-05-09T06:50:19.539Z,14.20
2019-05-09T06:52:48.848Z,14.20
2019-05-09T06:55:18.224Z,14.30
2019-05-09T06:57:48.854Z,14.20
2019-05-09T07:00:48.995Z,14.20
2019-05-09T07:03:20.850Z,14.20
2019-05-09T07:06:21.347Z,14.30
2019-05-09T07:08:58.314Z,14.30
2019-05-09T07:11:29.495Z,14.10
2019-05-09T07:13:58.960Z,14.20
2019-05-09T07:16:28.313Z,14.20
2019-05-09T07:18:58.021Z,14.10
2019-05-09T07:21:48.515Z,14.00
2019-05-09T07:24:19.737Z,14.00
2019-05-09T07:26:49.153Z,14.10
2019-05-09T07:29:18.552Z,14.00
2019-05-09T07:31:54.696Z,14.00
2019-05-09T07:34:31.930Z,13.90
2019-05-09T07:37:01.594Z,13.90
2019-05-09T07:39:31.017Z,13.90
2019-05-09T07:42:19.582Z,13.80
2019-05-09T07:44:52.288Z,13.80
2019-05-09T07:47:20.235Z,13.80
2019-05-09T07:49:49.885Z,13.70
2019-05-09T07:52:19.393Z,13.70
2019-05-09T07:55:08.885Z,13.60
2019-05-09T07:57:46.788Z,13.60
2019-05-09T08:00:11.815Z,13.60
2019-05-09T08:02:41.515Z,13.60
2019-05-09T08:05:34.005Z,13.60
2019-05-09T08:08:07.302Z,13.50
2019-05-09T08:10:38.571Z,13.60
2019-05-09T08:13:11.809Z,13.60
2019-05-09T08:15:39.300Z,13.60
2019-05-09T08:18:08.873Z,13.60
2019-05-09T08:20:40.603Z,13.70
2019-05-09T08:23:11.542Z,13.70
2019-05-09T08:25:40.957Z,13.60
2019-05-09T08:28:10.342Z,13.70
2019-05-09T08:30:40.477Z,13.70
2019-05-09T08:33:10.189Z,13.80
2019-05-09T08:35:39.560Z,13.80
2019-05-09T08:38:10.008Z,13.80
2019-05-09T08:40:40.781Z,13.80
2019-05-09T08:43:11.947Z,13.80
2019-05-09T08:45:41.326Z,13.80
2019-05-09T08:48:10.654Z,13.80
2019-05-09T08:50:44.387Z,13.80
2019-05-09T08:53:14.901Z,13.80
2019-05-09T08:55:44.323Z,13.70
2019-05-09T08:58:13.881Z,13.70
2019-05-09T09:00:43.306Z,13.70
2019-05-09T09:03:12.768Z,13.70
2019-05-09T09:06:03.830Z,13.70
2019-05-09T09:08:33.276Z,13.70
2019-05-09T09:11:02.687Z,13.70
2019-05-09T09:13:32.105Z,13.70
2019-05-09T09:16:14.332Z,13.80
2019-05-09T09:18:33.860Z,13.70
2019-05-09T09:21:03.306Z,13.70
2019-05-09T09:23:42.855Z,13.70
2019-05-09T09:26:03.848Z,13.70
2019-05-09T09:28:33.341Z,13.60
2019-05-09T09:31:02.691Z,13.60
2019-05-09T09:33:32.089Z,13.60
2019-05-09T09:36:01.622Z,13.60
2019-05-09T09:38:31.055Z,13.70
2019-05-09T09:41:01.064Z,13.70
2019-05-09T09:43:30.583Z,13.80
2019-05-09T09:46:10.512Z,13.90
2019-05-09T09:48:50.128Z,14.00
2019-05-09T09:51:19.640Z,14.00
2019-05-09T09:53:49.227Z,14.10
2019-05-09T09:56:22.409Z,14.10
2019-05-09T09:58:58.601Z,14.10
2019-05-09T10:01:30.012Z,14.10
2019-05-09T10:04:19.401Z,14.00
2019-05-09T10:06:40.984Z,14.00
2019-05-09T10:09:10.637Z,14.00
2019-05-09T10:11:40.997Z,14.00
2019-05-09T10:14:13.467Z,14.00
2019-05-09T10:16:48.536Z,14.10
2019-05-09T10:22:04.905Z,14.10
2019-05-09T10:24:37.225Z,14.10
2019-05-09T10:27:08.738Z,14.10
2019-05-09T10:29:40.788Z,14.10
2019-05-09T10:32:29.283Z,14.20
2019-05-09T10:34:58.727Z,14.30
2019-05-09T10:37:28.093Z,14.30
2019-05-09T10:39:58.232Z,14.40
2019-05-09T10:42:37.914Z,14.40
2019-05-09T10:45:28.438Z,14.40
2019-05-09T10:47:57.882Z,14.50
2019-05-09T10:50:34.116Z,14.50
2019-05-09T10:52:58.664Z,14.40
2019-05-09T10:55:28.435Z,14.40
2019-05-09T10:58:02.273Z,14.50
2019-05-09T11:00:29.021Z,14.50
2019-05-09T11:02:58.869Z,14.40
2019-05-09T11:05:28.276Z,14.50
2019-05-09T11:07:58.747Z,14.60
2019-05-09T11:10:32.372Z,14.60
2019-05-09T11:12:59.539Z,14.60
2019-05-09T11:15:28.948Z,14.70
2019-05-09T11:17:58.303Z,14.70
2019-05-09T11:20:28.406Z,14.70
2019-05-09T11:22:58.360Z,14.70
2019-05-09T11:25:27.944Z,14.70
2019-05-09T11:28:10.097Z,14.80
2019-05-09T11:30:28.524Z,14.90
2019-05-09T11:32:59.787Z,14.90
2019-05-09T11:35:29.120Z,15.00
2019-05-09T11:37:58.814Z,15.20
2019-05-09T11:40:28.532Z,15.30
2019-05-09T11:42:57.975Z,15.50
2019-05-09T11:45:28.274Z,15.60
2019-05-09T11:47:58.384Z,15.70
2019-05-09T11:50:27.990Z,15.80
2019-05-09T11:53:00.009Z,15.90
2019-05-09T11:55:35.741Z,15.80
2019-05-09T11:57:59.641Z,15.80
2019-05-09T12:00:29.555Z,15.70
2019-05-09T12:02:59.415Z,15.70
2019-05-09T12:05:28.995Z,15.70
2019-05-09T12:07:59.459Z,15.60
2019-05-09T12:10:28.870Z,15.70
2019-05-09T12:12:58.456Z,15.70
2019-05-09T12:15:29.189Z,15.80
2019-05-09T12:18:07.472Z,15.80
2019-05-09T12:20:31.166Z,15.80
2019-05-09T12:23:00.516Z,15.80
2019-05-09T12:25:48.984Z,15.90
2019-05-09T12:28:19.030Z,16.00
2019-05-09T12:30:49.051Z,16.00
2019-05-09T12:33:18.825Z,15.90
2019-05-09T12:35:48.277Z,15.80
2019-05-09T12:38:18.082Z,15.70
2019-05-09T12:40:48.299Z,15.70
2019-05-09T12:43:18.592Z,15.80
2019-05-09T12:45:48.104Z,15.80
2019-05-09T12:48:19.673Z,15.80
2019-05-09T12:50:49.037Z,15.90
2019-05-09T12:53:19.043Z,15.90
2019-05-09T12:55:50.106Z,15.90
2019-05-09T12:58:28.449Z,16.00
2019-05-09T13:00:58.942Z,16.00
2019-05-09T13:03:29.328Z,16.00
2019-05-09T13:06:00.338Z,16.00
2019-05-09T13:08:29.901Z,16.00
2019-05-09T13:11:02.344Z,16.10
2019-05-09T13:13:32.277Z,16.00
2019-05-09T13:16:14.152Z,16.00
2019-05-09T13:19:02.567Z,15.90
2019-05-09T13:21:33.045Z,15.90
2019-05-09T13:24:03.149Z,15.80
2019-05-09T13:26:32.603Z,15.80
2019-05-09T13:29:02.476Z,15.80
2019-05-09T13:31:34.639Z,15.90
2019-05-09T13:34:02.988Z,15.90
2019-05-09T13:36:32.496Z,16.00
2019-05-09T13:39:04.994Z,16.00
2019-05-09T13:41:33.093Z,16.10
2019-05-09T13:44:05.929Z,16.10
2019-05-09T13:46:38.601Z,16.20
2019-05-09T13:49:14.311Z,16.20
2019-05-09T13:51:49.854Z,16.20
2019-05-09T13:54:12.496Z,16.10
2019-05-09T13:56:41.965Z,16.20
2019-05-09T13:59:11.405Z,16.20
2019-05-09T14:01:40.839Z,16.20
2019-05-09T14:04:10.263Z,16.20
2019-05-09T14:06:39.704Z,16.20
2019-05-09T14:09:10.494Z,16.20
2019-05-09T14:11:40.354Z,16.20
2019-05-09T14:14:09.900Z,16.10
2019-05-09T14:16:39.508Z,16.00
2019-05-09T14:19:29.993Z,16.00
2019-05-09T14:21:41.872Z,15.90
2019-05-09T14:24:15.545Z,16.00
2019-05-09T14:26:42.732Z,16.00
2019-05-09T14:29:13.302Z,16.00
2019-05-09T14:31:43.121Z,16.00
2019-05-09T14:34:12.517Z,16.00
2019-05-09T14:36:45.401Z,16.10
2019-05-09T14:39:13.066Z,16.20
2019-05-09T14:41:42.514Z,16.20
2019-05-09T14:44:11.858Z,16.20
2019-05-09T14:46:41.279Z,16.30
2019-05-09T14:49:10.892Z,16.30
2019-05-09T14:51:40.701Z,16.40
2019-05-09T14:54:10.139Z,16.50
2019-05-09T14:56:41.752Z,16.60
2019-05-09T14:59:10.670Z,16.60
2019-05-09T15:01:43.654Z,16.60
2019-05-09T15:04:11.226Z,16.60
2019-05-09T15:06:40.590Z,16.70
2019-05-09T15:09:09.973Z,16.70
2019-05-09T15:11:39.926Z,16.70
2019-05-09T15:14:09.351Z,16.80
2019-05-09T15:16:39.297Z,16.80
2019-05-09T15:19:08.837Z,16.90
2019-05-09T15:21:38.575Z,16.90
2019-05-09T15:24:09.182Z,16.90
2019-05-09T15:26:38.900Z,16.90
2019-05-09T15:29:08.455Z,16.90
2019-05-09T15:31:39.268Z,16.90
2019-05-09T15:34:10.454Z,16.90
2019-05-09T15:36:40.026Z,16.90
2019-05-09T15:39:09.431Z,16.90
2019-05-09T15:41:38.873Z,16.90
2019-05-09T15:44:08.607Z,16.90
2019-05-09T15:46:48.811Z,16.90
